sensor_id;sensor_type;location;lat;lon;timestamp;temperature;humidity
6114;DHT22;3087;48.392;10.836;2023-04-24T00:00:09;10.90;99.90
6114;DHT22;3087;48.392;10.836;2023-04-24T00:02:36;10.90;99.90
6114;DHT22;3087;48.392;10.836;2023-04-24T00:05:05;10.90;99.90
6114;DHT22;3087;48.392;10.836;2023-04-24T00:07:31;10.90;99.90
6114;DHT22;3087;48.392;10.836;2023-04-24T00:09:57;11.40;99.90
6114;DHT22;3087;48.392;10.836;2023-04-24T00:12:23;11.80;99.90
6114;DHT22;3087;48.392;10.836;2023-04-24T00:14:49;10.90;99.90
6114;DHT22;3087;48.392;10.836;2023-04-24T00:17:17;10.80;99.90
6114;DHT22;3087;48.392;10.836;2023-04-24T00:19:48;11.00;99.90
6114;DHT22;3087;48.392;10.836;2023-04-24T00:22:18;10.70;99.90
6114;DHT22;3087;48.392;10.836;2023-04-24T00:24:43;10.70;99.90
6114;DHT22;3087;48.392;10.836;2023-04-24T00:27:09;10.70;99.90
6114;DHT22;3087;48.392;10.836;2023-04-24T00:29:38;11.00;99.90
6114;DHT22;3087;48.392;10.836;2023-04-24T00:32:03;10.80;99.90
6114;DHT22;3087;48.392;10.836;2023-04-24T00:34:29;10.70;99.90
6114;DHT22;3087;48.392;10.836;2023-04-24T00:36:55;10.70;99.90
6114;DHT22;3087;48.392;10.836;2023-04-24T00:39:21;10.70;99.90
6114;DHT22;3087;48.392;10.836;2023-04-24T00:41:47;10.90;99.90
6114;DHT22;3087;48.392;10.836;2023-04-24T00:44:14;10.80;99.90
6114;DHT22;3087;48.392;10.836;2023-04-24T00:46:40;10.70;99.90
6114;DHT22;3087;48.392;10.836;2023-04-24T00:49:06;11.00;99.90
6114;DHT22;3087;48.392;10.836;2023-04-24T00:51:32;10.70;99.90
6114;DHT22;3087;48.392;10.836;2023-04-24T00:54:00;10.80;99.90
6114;DHT22;3087;48.392;10.836;2023-04-24T00:56:25;10.80;99.90
6114;DHT22;3087;48.392;10.836;2023-04-24T00:58:51;11.00;99.90
6114;DHT22;3087;48.392;10.836;2023-04-24T01:01:19;10.70;99.90
6114;DHT22;3087;48.392;10.836;2023-04-24T01:03:46;10.70;99.90
6114;DHT22;3087;48.392;10.836;2023-04-24T01:06:12;10.70;99.90
6114;DHT22;3087;48.392;10.836;2023-04-24T01:08:38;13.30;99.90
6114;DHT22;3087;48.392;10.836;2023-04-24T01:11:05;11.60;99.90
6114;DHT22;3087;48.392;10.836;2023-04-24T01:13:32;10.70;99.90
6114;DHT22;3087;48.392;10.836;2023-04-24T01:15:58;10.70;99.90
6114;DHT22;3087;48.392;10.836;2023-04-24T01:18:24;11.00;99.90
6114;DHT22;3087;48.392;10.836;2023-04-24T01:20:51;13.40;99.90
6114;DHT22;3087;48.392;10.836;2023-04-24T01:23:18;10.80;99.90
6114;DHT22;3087;48.392;10.836;2023-04-24T01:25:44;11.70;99.90
6114;DHT22;3087;48.392;10.836;2023-04-24T01:28:10;10.90;99.90
6114;DHT22;3087;48.392;10.836;2023-04-24T01:30:37;10.80;99.90
6114;DHT22;3087;48.392;10.836;2023-04-24T01:33:03;10.80;99.90
6114;DHT22;3087;48.392;10.836;2023-04-24T01:35:28;10.80;99.90
6114;DHT22;3087;48.392;10.836;2023-04-24T01:37:54;10.80;99.90
6114;DHT22;3087;48.392;10.836;2023-04-24T01:40:20;11.50;99.90
6114;DHT22;3087;48.392;10.836;2023-04-24T01:42:45;10.70;99.90
6114;DHT22;3087;48.392;10.836;2023-04-24T01:45:12;10.70;99.90
6114;DHT22;3087;48.392;10.836;2023-04-24T01:47:38;10.60;99.90
6114;DHT22;3087;48.392;10.836;2023-04-24T01:50:05;10.60;99.90
6114;DHT22;3087;48.392;10.836;2023-04-24T01:52:31;10.60;99.90
6114;DHT22;3087;48.392;10.836;2023-04-24T01:55:02;11.10;99.90
6114;DHT22;3087;48.392;10.836;2023-04-24T01:57:29;11.10;99.90
6114;DHT22;3087;48.392;10.836;2023-04-24T01:59:55;10.50;99.90
6114;DHT22;3087;48.392;10.836;2023-04-24T02:02:21;10.50;99.90
6114;DHT22;3087;48.392;10.836;2023-04-24T02:04:52;11.60;99.90
6114;DHT22;3087;48.392;10.836;2023-04-24T02:07:17;10.40;99.90
6114;DHT22;3087;48.392;10.836;2023-04-24T02:09:43;13.00;99.90
6114;DHT22;3087;48.392;10.836;2023-04-24T02:12:09;10.60;99.90
6114;DHT22;3087;48.392;10.836;2023-04-24T02:14:34;10.40;99.90
6114;DHT22;3087;48.392;10.836;2023-04-24T02:17:00;11.30;99.90
6114;DHT22;3087;48.392;10.836;2023-04-24T02:19:26;10.60;99.90
6114;DHT22;3087;48.392;10.836;2023-04-24T02:21:51;10.80;99.90
6114;DHT22;3087;48.392;10.836;2023-04-24T02:24:17;10.30;99.90
6114;DHT22;3087;48.392;10.836;2023-04-24T02:26:43;10.30;99.90
6114;DHT22;3087;48.392;10.836;2023-04-24T02:29:08;10.20;99.90
6114;DHT22;3087;48.392;10.836;2023-04-24T02:31:34;10.20;99.90
6114;DHT22;3087;48.392;10.836;2023-04-24T02:33:59;10.20;99.90
6114;DHT22;3087;48.392;10.836;2023-04-24T02:36:25;10.30;99.90
6114;DHT22;3087;48.392;10.836;2023-04-24T02:38:51;10.30;99.90
6114;DHT22;3087;48.392;10.836;2023-04-24T02:41:16;10.80;99.90
6114;DHT22;3087;48.392;10.836;2023-04-24T02:43:42;10.30;99.90
6114;DHT22;3087;48.392;10.836;2023-04-24T02:46:07;10.30;99.90
6114;DHT22;3087;48.392;10.836;2023-04-24T02:48:33;10.70;99.90
6114;DHT22;3087;48.392;10.836;2023-04-24T02:50:58;10.60;99.90
6114;DHT22;3087;48.392;10.836;2023-04-24T02:53:24;11.10;99.90
6114;DHT22;3087;48.392;10.836;2023-04-24T02:55:50;10.40;99.90
6114;DHT22;3087;48.392;10.836;2023-04-24T02:58:16;10.40;99.90
6114;DHT22;3087;48.392;10.836;2023-04-24T03:00:42;10.40;99.90
6114;DHT22;3087;48.392;10.836;2023-04-24T03:03:08;10.70;99.90
6114;DHT22;3087;48.392;10.836;2023-04-24T03:05:34;10.60;99.90
6114;DHT22;3087;48.392;10.836;2023-04-24T03:08:00;10.40;99.90
6114;DHT22;3087;48.392;10.836;2023-04-24T03:10:25;10.80;99.90
6114;DHT22;3087;48.392;10.836;2023-04-24T03:12:51;10.40;99.90
6114;DHT22;3087;48.392;10.836;2023-04-24T03:15:16;11.70;99.90
6114;DHT22;3087;48.392;10.836;2023-04-24T03:17:42;10.80;99.90
6114;DHT22;3087;48.392;10.836;2023-04-24T03:20:09;9.10;99.90
6114;DHT22;3087;48.392;10.836;2023-04-24T03:22:35;10.40;99.90
6114;DHT22;3087;48.392;10.836;2023-04-24T03:25:01;10.60;99.90
6114;DHT22;3087;48.392;10.836;2023-04-24T03:27:26;11.10;99.90
6114;DHT22;3087;48.392;10.836;2023-04-24T03:29:52;10.50;99.90
6114;DHT22;3087;48.392;10.836;2023-04-24T03:32:23;10.50;99.90
6114;DHT22;3087;48.392;10.836;2023-04-24T03:34:49;10.50;99.90
6114;DHT22;3087;48.392;10.836;2023-04-24T03:37:16;10.50;99.90
6114;DHT22;3087;48.392;10.836;2023-04-24T03:39:42;11.70;99.90
6114;DHT22;3087;48.392;10.836;2023-04-24T03:42:08;10.40;99.90
6114;DHT22;3087;48.392;10.836;2023-04-24T03:44:34;11.90;99.90
6114;DHT22;3087;48.392;10.836;2023-04-24T03:47:00;10.50;99.90
6114;DHT22;3087;48.392;10.836;2023-04-24T03:49:25;11.10;99.90
6114;DHT22;3087;48.392;10.836;2023-04-24T03:51:51;10.40;99.90
6114;DHT22;3087;48.392;10.836;2023-04-24T03:54:18;10.50;99.90
6114;DHT22;3087;48.392;10.836;2023-04-24T03:56:44;10.90;99.90
6114;DHT22;3087;48.392;10.836;2023-04-24T03:59:09;10.40;99.90
6114;DHT22;3087;48.392;10.836;2023-04-24T04:01:35;10.50;99.90
6114;DHT22;3087;48.392;10.836;2023-04-24T04:04:05;10.50;99.90
6114;DHT22;3087;48.392;10.836;2023-04-24T04:06:31;11.70;99.90
6114;DHT22;3087;48.392;10.836;2023-04-24T04:08:57;11.50;99.90
6114;DHT22;3087;48.392;10.836;2023-04-24T04:11:24;11.20;99.90
6114;DHT22;3087;48.392;10.836;2023-04-24T04:13:50;11.80;99.90
6114;DHT22;3087;48.392;10.836;2023-04-24T04:16:15;12.10;99.90
6114;DHT22;3087;48.392;10.836;2023-04-24T04:18:43;11.40;99.90
6114;DHT22;3087;48.392;10.836;2023-04-24T04:21:08;10.50;99.90
6114;DHT22;3087;48.392;10.836;2023-04-24T04:23:34;12.00;99.90
6114;DHT22;3087;48.392;10.836;2023-04-24T04:26:00;10.50;99.90
6114;DHT22;3087;48.392;10.836;2023-04-24T04:28:26;10.80;99.90
6114;DHT22;3087;48.392;10.836;2023-04-24T04:30:52;10.40;99.90
6114;DHT22;3087;48.392;10.836;2023-04-24T04:33:21;10.40;99.90
6114;DHT22;3087;48.392;10.836;2023-04-24T04:35:47;11.50;99.90
6114;DHT22;3087;48.392;10.836;2023-04-24T04:38:18;10.40;99.90
6114;DHT22;3087;48.392;10.836;2023-04-24T04:40:44;10.10;99.90
6114;DHT22;3087;48.392;10.836;2023-04-24T04:43:10;11.00;99.90
6114;DHT22;3087;48.392;10.836;2023-04-24T04:45:37;10.40;99.90
6114;DHT22;3087;48.392;10.836;2023-04-24T04:48:04;10.50;99.90
6114;DHT22;3087;48.392;10.836;2023-04-24T04:50:32;11.50;99.90
6114;DHT22;3087;48.392;10.836;2023-04-24T04:52:58;10.50;99.90
6114;DHT22;3087;48.392;10.836;2023-04-24T04:55:23;10.60;99.90
6114;DHT22;3087;48.392;10.836;2023-04-24T04:57:49;10.50;99.90
6114;DHT22;3087;48.392;10.836;2023-04-24T05:00:15;12.10;99.90
6114;DHT22;3087;48.392;10.836;2023-04-24T05:02:41;10.50;99.90
6114;DHT22;3087;48.392;10.836;2023-04-24T05:05:07;10.90;99.90
6114;DHT22;3087;48.392;10.836;2023-04-24T05:07:33;10.60;99.90
6114;DHT22;3087;48.392;10.836;2023-04-24T05:10:00;10.50;99.90
6114;DHT22;3087;48.392;10.836;2023-04-24T05:12:26;10.60;99.90
6114;DHT22;3087;48.392;10.836;2023-04-24T05:14:52;10.60;99.90
6114;DHT22;3087;48.392;10.836;2023-04-24T05:17:17;10.50;99.90
6114;DHT22;3087;48.392;10.836;2023-04-24T05:19:44;11.10;99.90
6114;DHT22;3087;48.392;10.836;2023-04-24T05:22:10;10.60;99.90
6114;DHT22;3087;48.392;10.836;2023-04-24T05:24:37;10.80;99.90
6114;DHT22;3087;48.392;10.836;2023-04-24T05:27:03;10.70;99.90
6114;DHT22;3087;48.392;10.836;2023-04-24T05:29:30;10.70;99.90
6114;DHT22;3087;48.392;10.836;2023-04-24T05:31:57;10.70;99.90
6114;DHT22;3087;48.392;10.836;2023-04-24T05:34:22;11.70;99.90
6114;DHT22;3087;48.392;10.836;2023-04-24T05:36:49;10.80;99.90
6114;DHT22;3087;48.392;10.836;2023-04-24T05:39:16;12.50;99.90
6114;DHT22;3087;48.392;10.836;2023-04-24T05:41:41;10.90;99.90
6114;DHT22;3087;48.392;10.836;2023-04-24T05:44:07;12.00;99.90
6114;DHT22;3087;48.392;10.836;2023-04-24T05:46:32;10.90;99.90
6114;DHT22;3087;48.392;10.836;2023-04-24T05:48:58;10.80;99.90
6114;DHT22;3087;48.392;10.836;2023-04-24T05:51:24;10.80;99.90
6114;DHT22;3087;48.392;10.836;2023-04-24T05:53:49;10.80;99.90
6114;DHT22;3087;48.392;10.836;2023-04-24T05:56:15;11.00;99.90
6114;DHT22;3087;48.392;10.836;2023-04-24T05:58:41;10.80;99.90
6114;DHT22;3087;48.392;10.836;2023-04-24T06:01:07;11.70;99.90
6114;DHT22;3087;48.392;10.836;2023-04-24T06:03:32;12.60;99.90
6114;DHT22;3087;48.392;10.836;2023-04-24T06:05:58;11.10;99.90
6114;DHT22;3087;48.392;10.836;2023-04-24T06:08:24;11.30;99.90
6114;DHT22;3087;48.392;10.836;2023-04-24T06:10:50;11.00;99.90
6114;DHT22;3087;48.392;10.836;2023-04-24T06:13:15;11.00;99.90
6114;DHT22;3087;48.392;10.836;2023-04-24T06:15:41;12.60;99.90
6114;DHT22;3087;48.392;10.836;2023-04-24T06:18:07;11.80;99.90
6114;DHT22;3087;48.392;10.836;2023-04-24T06:20:33;12.60;99.90
6114;DHT22;3087;48.392;10.836;2023-04-24T06:22:58;11.00;99.90
6114;DHT22;3087;48.392;10.836;2023-04-24T06:25:25;11.20;99.90
6114;DHT22;3087;48.392;10.836;2023-04-24T06:27:52;10.90;99.90
6114;DHT22;3087;48.392;10.836;2023-04-24T06:30:17;10.90;99.90
6114;DHT22;3087;48.392;10.836;2023-04-24T06:32:43;11.30;99.90
6114;DHT22;3087;48.392;10.836;2023-04-24T06:35:09;11.20;99.90
6114;DHT22;3087;48.392;10.836;2023-04-24T06:37:36;10.90;99.90
6114;DHT22;3087;48.392;10.836;2023-04-24T06:40:02;11.30;99.90
6114;DHT22;3087;48.392;10.836;2023-04-24T06:42:28;11.00;99.90
6114;DHT22;3087;48.392;10.836;2023-04-24T06:44:54;11.50;99.90
6114;DHT22;3087;48.392;10.836;2023-04-24T06:47:20;11.60;99.90
6114;DHT22;3087;48.392;10.836;2023-04-24T06:49:45;11.30;99.90
6114;DHT22;3087;48.392;10.836;2023-04-24T06:52:11;11.50;99.90
6114;DHT22;3087;48.392;10.836;2023-04-24T06:54:36;11.40;99.90
6114;DHT22;3087;48.392;10.836;2023-04-24T06:57:02;11.50;99.90
6114;DHT22;3087;48.392;10.836;2023-04-24T06:59:29;11.60;99.90
6114;DHT22;3087;48.392;10.836;2023-04-24T07:01:55;11.60;99.90
6114;DHT22;3087;48.392;10.836;2023-04-24T07:04:21;12.40;99.90
6114;DHT22;3087;48.392;10.836;2023-04-24T07:06:47;11.70;99.90
6114;DHT22;3087;48.392;10.836;2023-04-24T07:09:13;11.70;99.90
6114;DHT22;3087;48.392;10.836;2023-04-24T07:11:39;11.80;99.90
6114;DHT22;3087;48.392;10.836;2023-04-24T07:14:06;12.60;99.90
6114;DHT22;3087;48.392;10.836;2023-04-24T07:16:32;11.40;99.90
6114;DHT22;3087;48.392;10.836;2023-04-24T07:18:57;11.50;99.90
6114;DHT22;3087;48.392;10.836;2023-04-24T07:21:23;11.90;99.90
6114;DHT22;3087;48.392;10.836;2023-04-24T07:23:49;11.90;99.90
6114;DHT22;3087;48.392;10.836;2023-04-24T07:26:14;12.20;99.90
6114;DHT22;3087;48.392;10.836;2023-04-24T07:28:40;12.00;99.90
6114;DHT22;3087;48.392;10.836;2023-04-24T07:31:08;12.00;99.90
6114;DHT22;3087;48.392;10.836;2023-04-24T07:33:34;12.40;99.90
6114;DHT22;3087;48.392;10.836;2023-04-24T07:36:01;11.60;99.90
6114;DHT22;3087;48.392;10.836;2023-04-24T07:38:29;11.70;99.90
6114;DHT22;3087;48.392;10.836;2023-04-24T07:40:55;11.40;99.90
6114;DHT22;3087;48.392;10.836;2023-04-24T07:43:21;11.60;99.90
6114;DHT22;3087;48.392;10.836;2023-04-24T07:45:47;11.50;99.90
6114;DHT22;3087;48.392;10.836;2023-04-24T07:48:12;11.90;99.90
6114;DHT22;3087;48.392;10.836;2023-04-24T07:50:42;11.60;99.90
6114;DHT22;3087;48.392;10.836;2023-04-24T07:53:07;11.90;99.90
6114;DHT22;3087;48.392;10.836;2023-04-24T07:55:33;11.40;99.90
6114;DHT22;3087;48.392;10.836;2023-04-24T07:57:59;12.60;99.90
6114;DHT22;3087;48.392;10.836;2023-04-24T08:00:24;10.90;99.90
6114;DHT22;3087;48.392;10.836;2023-04-24T08:02:50;10.80;99.90
6114;DHT22;3087;48.392;10.836;2023-04-24T08:05:15;11.50;99.90
6114;DHT22;3087;48.392;10.836;2023-04-24T08:07:41;11.20;99.90
6114;DHT22;3087;48.392;10.836;2023-04-24T08:10:11;11.40;99.90
6114;DHT22;3087;48.392;10.836;2023-04-24T08:12:37;13.90;99.90
6114;DHT22;3087;48.392;10.836;2023-04-24T08:15:04;11.50;99.90
6114;DHT22;3087;48.392;10.836;2023-04-24T08:17:30;11.70;99.90
6114;DHT22;3087;48.392;10.836;2023-04-24T08:19:56;12.20;99.90
6114;DHT22;3087;48.392;10.836;2023-04-24T08:22:29;12.00;99.90
6114;DHT22;3087;48.392;10.836;2023-04-24T08:24:56;12.20;99.90
6114;DHT22;3087;48.392;10.836;2023-04-24T08:27:22;12.30;99.90
6114;DHT22;3087;48.392;10.836;2023-04-24T08:29:49;12.40;99.90
6114;DHT22;3087;48.392;10.836;2023-04-24T08:32:14;12.70;99.90
6114;DHT22;3087;48.392;10.836;2023-04-24T08:34:40;12.80;99.90
6114;DHT22;3087;48.392;10.836;2023-04-24T08:37:05;12.90;99.90
6114;DHT22;3087;48.392;10.836;2023-04-24T08:39:31;13.00;99.90
6114;DHT22;3087;48.392;10.836;2023-04-24T08:41:57;13.20;99.90
6114;DHT22;3087;48.392;10.836;2023-04-24T08:44:31;13.10;99.90
6114;DHT22;3087;48.392;10.836;2023-04-24T08:46:57;13.50;99.90
6114;DHT22;3087;48.392;10.836;2023-04-24T08:49:24;13.20;99.90
6114;DHT22;3087;48.392;10.836;2023-04-24T08:51:52;13.30;99.90
6114;DHT22;3087;48.392;10.836;2023-04-24T08:54:18;13.50;99.90
6114;DHT22;3087;48.392;10.836;2023-04-24T08:56:45;13.50;99.90
6114;DHT22;3087;48.392;10.836;2023-04-24T08:59:12;13.50;99.90
6114;DHT22;3087;48.392;10.836;2023-04-24T09:01:40;13.40;99.90
6114;DHT22;3087;48.392;10.836;2023-04-24T09:04:07;13.40;99.90
6114;DHT22;3087;48.392;10.836;2023-04-24T09:06:35;15.30;99.90
6114;DHT22;3087;48.392;10.836;2023-04-24T09:09:01;13.40;99.90
6114;DHT22;3087;48.392;10.836;2023-04-24T09:11:27;13.60;99.90
6114;DHT22;3087;48.392;10.836;2023-04-24T09:13:54;14.10;99.90
6114;DHT22;3087;48.392;10.836;2023-04-24T09:16:20;13.60;99.90
6114;DHT22;3087;48.392;10.836;2023-04-24T09:18:48;13.60;99.90
6114;DHT22;3087;48.392;10.836;2023-04-24T09:21:14;15.40;99.90
6114;DHT22;3087;48.392;10.836;2023-04-24T09:23:40;13.70;99.90
6114;DHT22;3087;48.392;10.836;2023-04-24T09:26:06;13.70;99.90
6114;DHT22;3087;48.392;10.836;2023-04-24T09:28:39;13.70;99.90
6114;DHT22;3087;48.392;10.836;2023-04-24T09:31:11;14.00;99.90
6114;DHT22;3087;48.392;10.836;2023-04-24T09:33:37;14.30;99.90
6114;DHT22;3087;48.392;10.836;2023-04-24T09:36:03;14.10;99.90
6114;DHT22;3087;48.392;10.836;2023-04-24T09:38:36;14.00;99.90
6114;DHT22;3087;48.392;10.836;2023-04-24T09:41:05;14.10;99.90
6114;DHT22;3087;48.392;10.836;2023-04-24T09:43:31;13.90;99.90
6114;DHT22;3087;48.392;10.836;2023-04-24T09:45:58;13.90;99.90
6114;DHT22;3087;48.392;10.836;2023-04-24T09:48:32;14.20;99.90
6114;DHT22;3087;48.392;10.836;2023-04-24T09:50:57;14.50;99.90
6114;DHT22;3087;48.392;10.836;2023-04-24T09:53:25;14.70;99.90
6114;DHT22;3087;48.392;10.836;2023-04-24T09:55:51;14.80;99.90
6114;DHT22;3087;48.392;10.836;2023-04-24T09:58:24;15.00;99.90
6114;DHT22;3087;48.392;10.836;2023-04-24T10:00:49;14.70;99.90
6114;DHT22;3087;48.392;10.836;2023-04-24T10:03:18;14.90;99.90
6114;DHT22;3087;48.392;10.836;2023-04-24T10:05:46;15.90;99.90
6114;DHT22;3087;48.392;10.836;2023-04-24T10:08:13;14.50;99.90
6114;DHT22;3087;48.392;10.836;2023-04-24T10:10:41;11.40;99.90
6114;DHT22;3087;48.392;10.836;2023-04-24T10:13:08;12.20;99.90
6114;DHT22;3087;48.392;10.836;2023-04-24T10:15:34;10.40;99.90
6114;DHT22;3087;48.392;10.836;2023-04-24T10:18:00;11.20;99.90
6114;DHT22;3087;48.392;10.836;2023-04-24T10:20:28;10.50;99.90
6114;DHT22;3087;48.392;10.836;2023-04-24T10:22:56;12.10;99.90
6114;DHT22;3087;48.392;10.836;2023-04-24T10:25:24;10.90;99.90
6114;DHT22;3087;48.392;10.836;2023-04-24T10:27:51;11.20;99.90
6114;DHT22;3087;48.392;10.836;2023-04-24T10:30:18;13.40;99.90
6114;DHT22;3087;48.392;10.836;2023-04-24T10:32:44;11.60;99.90
6114;DHT22;3087;48.392;10.836;2023-04-24T10:35:12;11.60;99.90
6114;DHT22;3087;48.392;10.836;2023-04-24T10:40:32;11.60;99.90
6114;DHT22;3087;48.392;10.836;2023-04-24T10:43:05;11.80;99.90
6114;DHT22;3087;48.392;10.836;2023-04-24T10:45:35;11.80;99.90
6114;DHT22;3087;48.392;10.836;2023-04-24T10:48:01;12.10;99.90
6114;DHT22;3087;48.392;10.836;2023-04-24T10:50:30;12.30;99.90
6114;DHT22;3087;48.392;10.836;2023-04-24T10:53:14;12.70;99.90
6114;DHT22;3087;48.392;10.836;2023-04-24T10:55:58;13.30;99.90
6114;DHT22;3087;48.392;10.836;2023-04-24T10:58:45;14.20;99.90
6114;DHT22;3087;48.392;10.836;2023-04-24T11:01:37;15.10;99.90
6114;DHT22;3087;48.392;10.836;2023-04-24T11:04:03;15.90;99.90
6114;DHT22;3087;48.392;10.836;2023-04-24T11:06:33;16.40;99.90
6114;DHT22;3087;48.392;10.836;2023-04-24T11:09:07;16.00;99.90
6114;DHT22;3087;48.392;10.836;2023-04-24T11:11:37;15.60;99.90
6114;DHT22;3087;48.392;10.836;2023-04-24T11:14:06;15.10;99.90
6114;DHT22;3087;48.392;10.836;2023-04-24T11:21:57;16.30;99.90
6114;DHT22;3087;48.392;10.836;2023-04-24T11:24:27;16.50;99.90
6114;DHT22;3087;48.392;10.836;2023-04-24T11:30:02;16.30;99.90
6114;DHT22;3087;48.392;10.836;2023-04-24T11:37:41;17.70;99.90
6114;DHT22;3087;48.392;10.836;2023-04-24T11:40:09;17.60;99.90
6114;DHT22;3087;48.392;10.836;2023-04-24T11:42:49;16.90;99.90
6114;DHT22;3087;48.392;10.836;2023-04-24T11:45:17;16.00;99.90
6114;DHT22;3087;48.392;10.836;2023-04-24T11:47:44;15.40;99.90
6114;DHT22;3087;48.392;10.836;2023-04-24T11:50:15;15.20;99.90
6114;DHT22;3087;48.392;10.836;2023-04-24T11:52:42;15.90;99.90
6114;DHT22;3087;48.392;10.836;2023-04-24T11:55:29;17.20;99.90
6114;DHT22;3087;48.392;10.836;2023-04-24T11:57:59;14.70;99.90
6114;DHT22;3087;48.392;10.836;2023-04-24T12:00:29;15.40;99.90
6114;DHT22;3087;48.392;10.836;2023-04-24T12:03:11;16.20;99.90
6114;DHT22;3087;48.392;10.836;2023-04-24T12:05:37;16.60;99.90
6114;DHT22;3087;48.392;10.836;2023-04-24T12:08:04;16.00;99.90
6114;DHT22;3087;48.392;10.836;2023-04-24T12:10:31;16.20;99.90
6114;DHT22;3087;48.392;10.836;2023-04-24T12:12:58;16.70;99.90
6114;DHT22;3087;48.392;10.836;2023-04-24T12:15:25;16.50;99.90
6114;DHT22;3087;48.392;10.836;2023-04-24T12:17:55;15.80;99.90
6114;DHT22;3087;48.392;10.836;2023-04-24T12:20:29;15.40;99.90
6114;DHT22;3087;48.392;10.836;2023-04-24T12:22:56;15.30;99.90
6114;DHT22;3087;48.392;10.836;2023-04-24T12:25:33;15.40;99.90
6114;DHT22;3087;48.392;10.836;2023-04-24T12:30:38;16.20;99.90
6114;DHT22;3087;48.392;10.836;2023-04-24T12:33:03;16.90;99.90
6114;DHT22;3087;48.392;10.836;2023-04-24T12:35:32;17.80;99.90
6114;DHT22;3087;48.392;10.836;2023-04-24T12:38:13;18.50;99.90
6114;DHT22;3087;48.392;10.836;2023-04-24T12:40:42;18.10;99.90
6114;DHT22;3087;48.392;10.836;2023-04-24T12:43:16;17.20;99.90
6114;DHT22;3087;48.392;10.836;2023-04-24T12:45:41;16.70;99.90
6114;DHT22;3087;48.392;10.836;2023-04-24T12:48:07;16.20;99.90
6114;DHT22;3087;48.392;10.836;2023-04-24T12:50:33;15.70;99.90
6114;DHT22;3087;48.392;10.836;2023-04-24T12:52:58;15.50;99.90
6114;DHT22;3087;48.392;10.836;2023-04-24T12:55:24;15.50;99.90
6114;DHT22;3087;48.392;10.836;2023-04-24T12:57:49;15.50;99.90
6114;DHT22;3087;48.392;10.836;2023-04-24T13:00:16;15.20;99.90
6114;DHT22;3087;48.392;10.836;2023-04-24T13:02:41;15.30;99.90
6114;DHT22;3087;48.392;10.836;2023-04-24T13:05:07;15.30;99.90
6114;DHT22;3087;48.392;10.836;2023-04-24T13:07:34;15.00;99.90
6114;DHT22;3087;48.392;10.836;2023-04-24T13:10:00;15.70;99.90
6114;DHT22;3087;48.392;10.836;2023-04-24T13:12:26;16.10;99.90
6114;DHT22;3087;48.392;10.836;2023-04-24T13:14:52;16.40;99.90
6114;DHT22;3087;48.392;10.836;2023-04-24T13:17:17;16.40;99.90
6114;DHT22;3087;48.392;10.836;2023-04-24T13:19:44;16.60;99.90
6114;DHT22;3087;48.392;10.836;2023-04-24T13:22:11;17.30;99.40
6114;DHT22;3087;48.392;10.836;2023-04-24T13:24:38;17.40;99.60
6114;DHT22;3087;48.392;10.836;2023-04-24T13:27:05;17.00;98.90
6114;DHT22;3087;48.392;10.836;2023-04-24T13:29:31;16.40;98.80
6114;DHT22;3087;48.392;10.836;2023-04-24T13:31:56;16.00;98.90
6114;DHT22;3087;48.392;10.836;2023-04-24T13:34:26;15.90;98.20
6114;DHT22;3087;48.392;10.836;2023-04-24T13:36:53;15.80;98.10
6114;DHT22;3087;48.392;10.836;2023-04-24T13:39:19;15.80;99.50
6114;DHT22;3087;48.392;10.836;2023-04-24T13:41:45;15.80;99.90
6114;DHT22;3087;48.392;10.836;2023-04-24T13:44:13;15.80;99.90
6114;DHT22;3087;48.392;10.836;2023-04-24T13:46:38;15.50;99.90
6114;DHT22;3087;48.392;10.836;2023-04-24T13:49:04;15.60;99.90
6114;DHT22;3087;48.392;10.836;2023-04-24T13:51:30;15.70;99.90
6114;DHT22;3087;48.392;10.836;2023-04-24T13:53:55;15.90;99.90
6114;DHT22;3087;48.392;10.836;2023-04-24T13:56:22;15.60;99.90
6114;DHT22;3087;48.392;10.836;2023-04-24T13:58:48;15.50;99.90
6114;DHT22;3087;48.392;10.836;2023-04-24T14:01:14;15.60;99.90
6114;DHT22;3087;48.392;10.836;2023-04-24T14:03:41;15.80;99.30
6114;DHT22;3087;48.392;10.836;2023-04-24T14:06:07;16.90;99.80
6114;DHT22;3087;48.392;10.836;2023-04-24T14:08:32;17.30;98.30
6114;DHT22;3087;48.392;10.836;2023-04-24T14:10:58;17.00;99.10
6114;DHT22;3087;48.392;10.836;2023-04-24T14:13:24;16.30;97.90
6114;DHT22;3087;48.392;10.836;2023-04-24T14:15:50;15.70;98.20
6114;DHT22;3087;48.392;10.836;2023-04-24T14:18:18;15.40;98.60
6114;DHT22;3087;48.392;10.836;2023-04-24T14:20:44;15.90;99.10
6114;DHT22;3087;48.392;10.836;2023-04-24T14:23:09;17.10;99.10
6114;DHT22;3087;48.392;10.836;2023-04-24T14:25:35;17.90;98.70
6114;DHT22;3087;48.392;10.836;2023-04-24T14:28:01;17.90;97.40
6114;DHT22;3087;48.392;10.836;2023-04-24T14:30:26;17.80;96.70
6114;DHT22;3087;48.392;10.836;2023-04-24T14:32:52;18.00;97.20
6114;DHT22;3087;48.392;10.836;2023-04-24T14:35:17;18.00;95.60
6114;DHT22;3087;48.392;10.836;2023-04-24T14:37:43;18.20;95.80
6114;DHT22;3087;48.392;10.836;2023-04-24T14:40:09;17.90;95.50
6114;DHT22;3087;48.392;10.836;2023-04-24T14:42:35;17.60;95.70
6114;DHT22;3087;48.392;10.836;2023-04-24T14:45:01;17.40;94.30
6114;DHT22;3087;48.392;10.836;2023-04-24T14:47:27;17.70;94.20
6114;DHT22;3087;48.392;10.836;2023-04-24T14:49:52;17.30;93.70
6114;DHT22;3087;48.392;10.836;2023-04-24T14:52:18;17.20;94.20
6114;DHT22;3087;48.392;10.836;2023-04-24T14:54:44;17.30;93.70
6114;DHT22;3087;48.392;10.836;2023-04-24T14:57:11;17.60;94.10
6114;DHT22;3087;48.392;10.836;2023-04-24T14:59:37;17.50;94.50
6114;DHT22;3087;48.392;10.836;2023-04-24T15:02:02;17.30;94.60
6114;DHT22;3087;48.392;10.836;2023-04-24T15:04:28;16.90;95.10
6114;DHT22;3087;48.392;10.836;2023-04-24T15:06:55;16.60;95.40
6114;DHT22;3087;48.392;10.836;2023-04-24T15:09:21;16.40;95.80
6114;DHT22;3087;48.392;10.836;2023-04-24T15:11:48;16.60;97.00
6114;DHT22;3087;48.392;10.836;2023-04-24T15:14:14;16.80;96.30
6114;DHT22;3087;48.392;10.836;2023-04-24T15:16:40;16.50;95.80
6114;DHT22;3087;48.392;10.836;2023-04-24T15:19:05;16.40;95.90
6114;DHT22;3087;48.392;10.836;2023-04-24T15:21:31;15.90;95.80
6114;DHT22;3087;48.392;10.836;2023-04-24T15:23:57;15.70;96.00
6114;DHT22;3087;48.392;10.836;2023-04-24T15:26:24;15.30;94.80
6114;DHT22;3087;48.392;10.836;2023-04-24T15:28:50;15.20;94.80
6114;DHT22;3087;48.392;10.836;2023-04-24T15:31:17;15.30;95.10
6114;DHT22;3087;48.392;10.836;2023-04-24T15:33:43;15.30;95.30
6114;DHT22;3087;48.392;10.836;2023-04-24T15:36:09;15.90;94.80
6114;DHT22;3087;48.392;10.836;2023-04-24T15:38:35;16.40;94.10
6114;DHT22;3087;48.392;10.836;2023-04-24T15:41:01;16.70;93.80
6114;DHT22;3087;48.392;10.836;2023-04-24T15:43:27;16.60;92.90
6114;DHT22;3087;48.392;10.836;2023-04-24T15:45:56;17.00;94.10
6114;DHT22;3087;48.392;10.836;2023-04-24T15:48:22;17.40;93.30
6114;DHT22;3087;48.392;10.836;2023-04-24T15:50:47;17.50;93.30
6114;DHT22;3087;48.392;10.836;2023-04-24T15:53:13;17.20;92.40
6114;DHT22;3087;48.392;10.836;2023-04-24T15:55:39;16.20;91.90
6114;DHT22;3087;48.392;10.836;2023-04-24T15:58:04;15.70;93.10
6114;DHT22;3087;48.392;10.836;2023-04-24T16:00:30;15.30;93.40